TimeCST,TemperatureF,Dew PointF,Humidity,Sea Level PressureIn,VisibilityMPH,Wind Direction,Wind SpeedMPH,Gust SpeedMPH,PrecipitationIn,Events,Conditions,WindDirDegrees,DateUTC
12:55 AM,7.0,3.9,87,30.24,10.0,WNW,6.9,-,N/A,,Clear,290,2013-01-06 06:55:00
1:55 AM,9.0,5.0,84,30.23,10.0,Calm,Calm,-,N/A,,Clear,0,2013-01-06 07:55:00
2:55 AM,8.1,3.9,83,30.25,10.0,Calm,Calm,-,N/A,,Clear,0,2013-01-06 08:55:00
3:55 AM,5.0,1.9,87,30.25,10.0,SSW,4.6,-,N/A,,Clear,200,2013-01-06 09:55:00
4:55 AM,3.9,-0.0,84,30.26,10.0,Calm,Calm,-,N/A,,Clear,0,2013-01-06 10:55:00
5:55 AM,1.4,-2.2,85,30.19,10.0,Calm,Calm,-,N/A,,Clear,0,2013-01-06 11:55:00
6:55 AM,1.9,-0.9,88,30.27,8.0,Calm,Calm,-,N/A,,Clear,0,2013-01-06 12:55:00
7:55 AM,9.0,5.0,84,30.28,10.0,West,4.6,-,N/A,,Clear,280,2013-01-06 13:55:00
8:55 AM,7.0,5.0,92,30.29,10.0,Calm,Calm,-,N/A,,Clear,0,2013-01-06 14:55:00
9:55 AM,10.0,6.1,84,30.29,10.0,Calm,Calm,-,N/A,,Clear,0,2013-01-06 15:55:00
10:55 AM,14.0,9.0,80,30.29,10.0,SSE,4.6,-,N/A,,Clear,160,2013-01-06 16:55:00
11:55 AM,17.6,12.2,79,30.19,10.0,South,5.8,-,N/A,,Clear,170,2013-01-06 17:55:00
12:55 PM,19.9,12.9,74,30.21,10.0,SSE,5.8,-,N/A,,Clear,150,2013-01-06 18:55:00
1:55 PM,21.9,15.1,75,30.17,10.0,South,8.1,-,N/A,,Clear,170,2013-01-06 19:55:00
2:55 PM,21.9,15.1,75,30.14,10.0,SSE,10.4,-,N/A,,Clear,160,2013-01-06 20:55:00
3:55 PM,21.0,15.1,78,30.12,10.0,SSE,10.4,-,N/A,,Clear,150,2013-01-06 21:55:00
4:55 PM,21.0,16.0,81,30.08,10.0,SSE,13.8,21.9,N/A,,Clear,150,2013-01-06 22:55:00
5:55 PM,21.9,17.1,82,30.02,10.0,SSE,18.4,27.6,N/A,,Clear,160,2013-01-06 23:55:00
6:55 PM,23.0,18.0,81,29.99,10.0,SSE,18.4,25.3,N/A,,Clear,160,2013-01-07 00:55:00
7:55 PM,24.1,19.0,81,29.93,10.0,SSE,17.3,26.5,N/A,,Clear,160,2013-01-07 01:55:00
9:55 PM,28.0,21.9,78,29.89,10.0,South,12.7,20.7,N/A,,Clear,180,2013-01-07 03:55:00
10:55 PM,28.0,21.9,78,29.89,10.0,South,13.8,-,N/A,,Clear,180,2013-01-07 04:55:00
11:55 PM,27.0,21.0,78,29.89,10.0,South,11.5,-,N/A,,Clear,190,2013-01-07 05:55:00